Terminal Aerodrome Forecast
Issued by NWS

Current Version | Previous Version | Graphics & Text | Print | Product List | Glossary On
Versions: 1 2 3 4 5 6 7 8 9 10 11 12 13 14 15 16 17 18 19 20 21 22 23
000
FTUS41 KILN 202207 AAC
TAFLUK
TAF AMD
KLUK 202207Z 2022/2118 11007KT P6SM VCSH OVC035
      TEMPO 2022/2023 33015KT 2SM +TSRAGR BR OVC015CB
     FM202300 18009KT 3SM -TSRA BR OVC025CB
     FM210200 VRB03KT 4SM -SHRA BR OVC015
     FM210400 36005KT 2SM BR OVC007
     FM211100 35009KT 5SM BR OVC015=

USA.gov is the U.S. government's official web portal to all federal, state and local government web resources and services.